sensor_id;sensor_type;location;lat;lon;timestamp;P1;durP1;ratioP1;P2;durP2;ratioP2
57846;SDS011;43675;50.030;21.952;2023-11-19T00:01:03;38.40;;;34.10;;
57846;SDS011;43675;50.030;21.952;2023-11-19T00:03:50;40.70;;;35.40;;
57846;SDS011;43675;50.030;21.952;2023-11-19T00:06:17;39.60;;;35.30;;
57846;SDS011;43675;50.030;21.952;2023-11-19T00:08:44;39.30;;;35.10;;
57846;SDS011;43675;50.030;21.952;2023-11-19T00:11:11;39.00;;;34.80;;
57846;SDS011;43675;50.030;21.952;2023-11-19T00:13:37;39.70;;;35.40;;
57846;SDS011;43675;50.030;21.952;2023-11-19T00:16:04;39.90;;;35.60;;
57846;SDS011;43675;50.030;21.952;2023-11-19T00:18:31;39.70;;;35.40;;
57846;SDS011;43675;50.030;21.952;2023-11-19T00:20:58;42.50;;;37.60;;
57846;SDS011;43675;50.030;21.952;2023-11-19T00:23:25;41.00;;;35.30;;
57846;SDS011;43675;50.030;21.952;2023-11-19T00:25:54;39.60;;;35.00;;
57846;SDS011;43675;50.030;21.952;2023-11-19T00:28:21;38.60;;;34.50;;
57846;SDS011;43675;50.030;21.952;2023-11-19T00:30:48;37.80;;;33.80;;
57846;SDS011;43675;50.030;21.952;2023-11-19T00:33:15;37.90;;;33.90;;
57846;SDS011;43675;50.030;21.952;2023-11-19T00:35:45;37.80;;;33.80;;
57846;SDS011;43675;50.030;21.952;2023-11-19T00:38:11;38.80;;;34.60;;
57846;SDS011;43675;50.030;21.952;2023-11-19T00:40:38;40.40;;;36.20;;
57846;SDS011;43675;50.030;21.952;2023-11-19T00:43:05;38.40;;;34.30;;
57846;SDS011;43675;50.030;21.952;2023-11-19T00:45:32;39.10;;;35.00;;
57846;SDS011;43675;50.030;21.952;2023-11-19T00:47:59;38.20;;;34.10;;
57846;SDS011;43675;50.030;21.952;2023-11-19T00:50:26;38.90;;;34.80;;
57846;SDS011;43675;50.030;21.952;2023-11-19T00:52:53;36.50;;;32.60;;
57846;SDS011;43675;50.030;21.952;2023-11-19T00:55:19;39.70;;;35.20;;
57846;SDS011;43675;50.030;21.952;2023-11-19T00:57:46;39.40;;;35.00;;
57846;SDS011;43675;50.030;21.952;2023-11-19T01:00:12;39.20;;;34.90;;
57846;SDS011;43675;50.030;21.952;2023-11-19T01:02:40;37.80;;;33.80;;
57846;SDS011;43675;50.030;21.952;2023-11-19T01:05:07;38.70;;;33.20;;
57846;SDS011;43675;50.030;21.952;2023-11-19T01:07:34;38.00;;;33.70;;
57846;SDS011;43675;50.030;21.952;2023-11-19T01:10:01;38.70;;;34.20;;
57846;SDS011;43675;50.030;21.952;2023-11-19T01:12:27;38.80;;;34.20;;
57846;SDS011;43675;50.030;21.952;2023-11-19T01:14:54;37.30;;;33.30;;
57846;SDS011;43675;50.030;21.952;2023-11-19T01:17:20;38.30;;;33.90;;
57846;SDS011;43675;50.030;21.952;2023-11-19T01:19:47;37.70;;;33.00;;
57846;SDS011;43675;50.030;21.952;2023-11-19T01:22:13;38.90;;;33.80;;
57846;SDS011;43675;50.030;21.952;2023-11-19T01:24:40;37.70;;;33.60;;
57846;SDS011;43675;50.030;21.952;2023-11-19T01:27:07;37.90;;;33.80;;
57846;SDS011;43675;50.030;21.952;2023-11-19T01:29:33;38.30;;;33.70;;
57846;SDS011;43675;50.030;21.952;2023-11-19T01:32:00;39.20;;;34.30;;
57846;SDS011;43675;50.030;21.952;2023-11-19T01:34:27;37.90;;;33.70;;
57846;SDS011;43675;50.030;21.952;2023-11-19T01:36:53;38.30;;;33.90;;
57846;SDS011;43675;50.030;21.952;2023-11-19T01:39:20;38.80;;;34.60;;
57846;SDS011;43675;50.030;21.952;2023-11-19T01:41:47;38.10;;;33.60;;
57846;SDS011;43675;50.030;21.952;2023-11-19T01:44:13;41.90;;;34.10;;
57846;SDS011;43675;50.030;21.952;2023-11-19T01:46:40;37.30;;;33.20;;
57846;SDS011;43675;50.030;21.952;2023-11-19T01:49:11;38.70;;;34.50;;
57846;SDS011;43675;50.030;21.952;2023-11-19T01:51:41;41.10;;;35.00;;
57846;SDS011;43675;50.030;21.952;2023-11-19T01:54:08;40.10;;;34.20;;
57846;SDS011;43675;50.030;21.952;2023-11-19T01:56:36;39.60;;;34.40;;
57846;SDS011;43675;50.030;21.952;2023-11-19T01:59:05;39.10;;;34.70;;
57846;SDS011;43675;50.030;21.952;2023-11-19T02:01:32;47.20;;;39.70;;
57846;SDS011;43675;50.030;21.952;2023-11-19T02:04:03;42.00;;;36.70;;
57846;SDS011;43675;50.030;21.952;2023-11-19T02:06:30;43.40;;;36.00;;
57846;SDS011;43675;50.030;21.952;2023-11-19T02:08:59;40.80;;;35.40;;
57846;SDS011;43675;50.030;21.952;2023-11-19T02:11:26;40.50;;;36.00;;
57846;SDS011;43675;50.030;21.952;2023-11-19T02:13:53;44.20;;;37.70;;
57846;SDS011;43675;50.030;21.952;2023-11-19T02:16:20;44.60;;;39.70;;
57846;SDS011;43675;50.030;21.952;2023-11-19T02:18:47;39.50;;;34.90;;
57846;SDS011;43675;50.030;21.952;2023-11-19T02:21:14;40.20;;;35.90;;
57846;SDS011;43675;50.030;21.952;2023-11-19T02:23:40;40.90;;;36.40;;
57846;SDS011;43675;50.030;21.952;2023-11-19T02:28:50;37.80;;;33.80;;
57846;SDS011;43675;50.030;21.952;2023-11-19T02:31:16;41.40;;;37.10;;
57846;SDS011;43675;50.030;21.952;2023-11-19T02:33:43;41.90;;;35.50;;
57846;SDS011;43675;50.030;21.952;2023-11-19T02:36:10;40.70;;;35.70;;
57846;SDS011;43675;50.030;21.952;2023-11-19T02:38:37;40.30;;;35.80;;
57846;SDS011;43675;50.030;21.952;2023-11-19T02:41:06;41.30;;;36.40;;
57846;SDS011;43675;50.030;21.952;2023-11-19T02:43:34;40.20;;;35.80;;
57846;SDS011;43675;50.030;21.952;2023-11-19T02:46:01;39.90;;;35.60;;
57846;SDS011;43675;50.030;21.952;2023-11-19T02:48:29;43.50;;;38.70;;
57846;SDS011;43675;50.030;21.952;2023-11-19T02:50:55;41.40;;;36.20;;
57846;SDS011;43675;50.030;21.952;2023-11-19T02:53:22;44.00;;;36.60;;
57846;SDS011;43675;50.030;21.952;2023-11-19T02:55:49;42.00;;;36.50;;
57846;SDS011;43675;50.030;21.952;2023-11-19T02:58:16;42.80;;;37.20;;
57846;SDS011;43675;50.030;21.952;2023-11-19T03:00:42;42.90;;;36.80;;
57846;SDS011;43675;50.030;21.952;2023-11-19T03:03:09;43.10;;;36.50;;
57846;SDS011;43675;50.030;21.952;2023-11-19T03:05:36;43.20;;;38.70;;
57846;SDS011;43675;50.030;21.952;2023-11-19T03:08:02;55.90;;;44.90;;
57846;SDS011;43675;50.030;21.952;2023-11-19T03:10:29;53.10;;;44.30;;
57846;SDS011;43675;50.030;21.952;2023-11-19T03:13:02;56.30;;;45.70;;
57846;SDS011;43675;50.030;21.952;2023-11-19T03:15:29;49.50;;;41.70;;
57846;SDS011;43675;50.030;21.952;2023-11-19T03:17:56;45.50;;;37.10;;
57846;SDS011;43675;50.030;21.952;2023-11-19T03:20:22;45.70;;;37.90;;
57846;SDS011;43675;50.030;21.952;2023-11-19T03:22:49;49.90;;;41.30;;
57846;SDS011;43675;50.030;21.952;2023-11-19T03:25:15;43.80;;;37.60;;
57846;SDS011;43675;50.030;21.952;2023-11-19T03:27:42;45.80;;;38.50;;
57846;SDS011;43675;50.030;21.952;2023-11-19T03:30:09;47.00;;;39.80;;
57846;SDS011;43675;50.030;21.952;2023-11-19T03:32:36;44.10;;;38.00;;
57846;SDS011;43675;50.030;21.952;2023-11-19T03:35:04;50.00;;;40.80;;
57846;SDS011;43675;50.030;21.952;2023-11-19T03:37:31;50.00;;;41.00;;
57846;SDS011;43675;50.030;21.952;2023-11-19T03:39:58;55.20;;;45.50;;
57846;SDS011;43675;50.030;21.952;2023-11-19T03:42:26;51.60;;;42.40;;
57846;SDS011;43675;50.030;21.952;2023-11-19T03:44:53;51.70;;;42.60;;
57846;SDS011;43675;50.030;21.952;2023-11-19T03:47:20;53.10;;;44.40;;
57846;SDS011;43675;50.030;21.952;2023-11-19T03:49:47;51.80;;;42.70;;
57846;SDS011;43675;50.030;21.952;2023-11-19T03:52:15;49.80;;;41.40;;
57846;SDS011;43675;50.030;21.952;2023-11-19T03:54:43;49.00;;;39.60;;
57846;SDS011;43675;50.030;21.952;2023-11-19T03:57:10;48.40;;;40.40;;
57846;SDS011;43675;50.030;21.952;2023-11-19T03:59:36;51.60;;;40.90;;
57846;SDS011;43675;50.030;21.952;2023-11-19T04:02:03;51.40;;;43.50;;
57846;SDS011;43675;50.030;21.952;2023-11-19T04:04:30;53.70;;;43.60;;
57846;SDS011;43675;50.030;21.952;2023-11-19T04:06:56;48.40;;;42.50;;
57846;SDS011;43675;50.030;21.952;2023-11-19T04:09:24;50.70;;;43.90;;
57846;SDS011;43675;50.030;21.952;2023-11-19T04:11:50;51.90;;;44.80;;
57846;SDS011;43675;50.030;21.952;2023-11-19T04:14:17;51.20;;;44.30;;
57846;SDS011;43675;50.030;21.952;2023-11-19T04:16:44;51.90;;;43.80;;
57846;SDS011;43675;50.030;21.952;2023-11-19T04:19:11;50.30;;;41.80;;
57846;SDS011;43675;50.030;21.952;2023-11-19T04:21:41;50.00;;;41.70;;
57846;SDS011;43675;50.030;21.952;2023-11-19T04:24:09;49.60;;;43.30;;
57846;SDS011;43675;50.030;21.952;2023-11-19T04:26:36;52.20;;;43.40;;
57846;SDS011;43675;50.030;21.952;2023-11-19T04:29:09;50.20;;;42.10;;
57846;SDS011;43675;50.030;21.952;2023-11-19T04:31:37;50.00;;;43.70;;
57846;SDS011;43675;50.030;21.952;2023-11-19T04:34:07;47.60;;;41.40;;
57846;SDS011;43675;50.030;21.952;2023-11-19T04:36:34;47.50;;;40.80;;
57846;SDS011;43675;50.030;21.952;2023-11-19T04:39:01;51.40;;;42.60;;
57846;SDS011;43675;50.030;21.952;2023-11-19T04:41:28;47.00;;;39.90;;
57846;SDS011;43675;50.030;21.952;2023-11-19T04:43:54;47.50;;;40.20;;
57846;SDS011;43675;50.030;21.952;2023-11-19T04:46:21;46.70;;;40.30;;
57846;SDS011;43675;50.030;21.952;2023-11-19T04:48:48;47.60;;;40.30;;
57846;SDS011;43675;50.030;21.952;2023-11-19T04:51:15;47.20;;;40.50;;
57846;SDS011;43675;50.030;21.952;2023-11-19T04:53:42;48.80;;;39.80;;
57846;SDS011;43675;50.030;21.952;2023-11-19T04:56:09;48.80;;;40.80;;
57846;SDS011;43675;50.030;21.952;2023-11-19T04:58:36;45.60;;;39.10;;
57846;SDS011;43675;50.030;21.952;2023-11-19T05:01:03;40.60;;;36.40;;
57846;SDS011;43675;50.030;21.952;2023-11-19T05:03:31;42.80;;;38.20;;
57846;SDS011;43675;50.030;21.952;2023-11-19T05:05:58;42.00;;;37.40;;
57846;SDS011;43675;50.030;21.952;2023-11-19T05:08:25;41.90;;;37.50;;
57846;SDS011;43675;50.030;21.952;2023-11-19T05:10:52;41.80;;;37.20;;
57846;SDS011;43675;50.030;21.952;2023-11-19T05:13:22;43.80;;;39.30;;
57846;SDS011;43675;50.030;21.952;2023-11-19T05:15:48;43.80;;;38.80;;
57846;SDS011;43675;50.030;21.952;2023-11-19T05:18:15;38.50;;;34.40;;
57846;SDS011;43675;50.030;21.952;2023-11-19T05:20:41;36.10;;;32.50;;
57846;SDS011;43675;50.030;21.952;2023-11-19T05:23:08;36.80;;;33.30;;
57846;SDS011;43675;50.030;21.952;2023-11-19T05:25:34;38.10;;;34.20;;
57846;SDS011;43675;50.030;21.952;2023-11-19T05:28:03;38.00;;;34.20;;
57846;SDS011;43675;50.030;21.952;2023-11-19T05:30:29;38.10;;;34.30;;
57846;SDS011;43675;50.030;21.952;2023-11-19T05:32:56;38.80;;;35.00;;
57846;SDS011;43675;50.030;21.952;2023-11-19T05:35:23;39.00;;;34.90;;
57846;SDS011;43675;50.030;21.952;2023-11-19T05:37:50;38.70;;;34.60;;
57846;SDS011;43675;50.030;21.952;2023-11-19T05:40:17;37.60;;;33.90;;
57846;SDS011;43675;50.030;21.952;2023-11-19T05:42:43;37.40;;;33.40;;
57846;SDS011;43675;50.030;21.952;2023-11-19T05:45:11;37.90;;;34.10;;
57846;SDS011;43675;50.030;21.952;2023-11-19T05:47:38;38.90;;;34.90;;
57846;SDS011;43675;50.030;21.952;2023-11-19T05:50:05;39.80;;;35.60;;
57846;SDS011;43675;50.030;21.952;2023-11-19T05:52:31;40.80;;;36.50;;
57846;SDS011;43675;50.030;21.952;2023-11-19T05:54:59;40.70;;;36.40;;
57846;SDS011;43675;50.030;21.952;2023-11-19T05:57:26;39.00;;;34.90;;
57846;SDS011;43675;50.030;21.952;2023-11-19T05:59:53;41.10;;;36.90;;
57846;SDS011;43675;50.030;21.952;2023-11-19T06:02:20;39.10;;;35.10;;
57846;SDS011;43675;50.030;21.952;2023-11-19T06:04:46;40.90;;;36.60;;
57846;SDS011;43675;50.030;21.952;2023-11-19T06:07:13;40.50;;;36.30;;
57846;SDS011;43675;50.030;21.952;2023-11-19T06:09:40;48.00;;;40.00;;
57846;SDS011;43675;50.030;21.952;2023-11-19T06:12:07;53.50;;;42.60;;
57846;SDS011;43675;50.030;21.952;2023-11-19T06:14:34;50.80;;;42.30;;
57846;SDS011;43675;50.030;21.952;2023-11-19T06:17:00;42.40;;;37.60;;
57846;SDS011;43675;50.030;21.952;2023-11-19T06:19:27;42.50;;;37.50;;
57846;SDS011;43675;50.030;21.952;2023-11-19T06:21:54;42.80;;;38.00;;
57846;SDS011;43675;50.030;21.952;2023-11-19T06:24:21;42.70;;;38.10;;
57846;SDS011;43675;50.030;21.952;2023-11-19T06:26:48;55.10;;;42.40;;
57846;SDS011;43675;50.030;21.952;2023-11-19T06:29:14;56.60;;;44.20;;
57846;SDS011;43675;50.030;21.952;2023-11-19T06:31:41;54.80;;;41.70;;
57846;SDS011;43675;50.030;21.952;2023-11-19T06:34:08;52.10;;;43.00;;
57846;SDS011;43675;50.030;21.952;2023-11-19T06:36:35;53.40;;;41.10;;
57846;SDS011;43675;50.030;21.952;2023-11-19T06:39:02;50.20;;;40.20;;
57846;SDS011;43675;50.030;21.952;2023-11-19T06:41:28;41.40;;;36.60;;
57846;SDS011;43675;50.030;21.952;2023-11-19T06:43:55;38.80;;;33.70;;
57846;SDS011;43675;50.030;21.952;2023-11-19T06:46:21;40.10;;;35.00;;
57846;SDS011;43675;50.030;21.952;2023-11-19T06:48:48;40.80;;;35.50;;
57846;SDS011;43675;50.030;21.952;2023-11-19T06:51:15;37.00;;;33.10;;
57846;SDS011;43675;50.030;21.952;2023-11-19T06:53:44;39.60;;;34.10;;
57846;SDS011;43675;50.030;21.952;2023-11-19T06:56:18;37.30;;;33.30;;
57846;SDS011;43675;50.030;21.952;2023-11-19T06:58:48;36.70;;;32.80;;
57846;SDS011;43675;50.030;21.952;2023-11-19T07:01:16;37.80;;;33.80;;
57846;SDS011;43675;50.030;21.952;2023-11-19T07:03:46;36.90;;;32.90;;
57846;SDS011;43675;50.030;21.952;2023-11-19T07:06:13;37.00;;;33.20;;
57846;SDS011;43675;50.030;21.952;2023-11-19T07:08:43;36.00;;;32.40;;
57846;SDS011;43675;50.030;21.952;2023-11-19T07:11:11;34.90;;;31.30;;
57846;SDS011;43675;50.030;21.952;2023-11-19T07:13:38;34.80;;;31.30;;
57846;SDS011;43675;50.030;21.952;2023-11-19T07:16:05;35.10;;;31.60;;
57846;SDS011;43675;50.030;21.952;2023-11-19T07:18:32;34.70;;;31.40;;
57846;SDS011;43675;50.030;21.952;2023-11-19T07:20:59;35.20;;;31.60;;
57846;SDS011;43675;50.030;21.952;2023-11-19T07:23:25;36.60;;;32.90;;
57846;SDS011;43675;50.030;21.952;2023-11-19T07:25:52;35.30;;;32.00;;
57846;SDS011;43675;50.030;21.952;2023-11-19T07:28:19;34.30;;;31.10;;
57846;SDS011;43675;50.030;21.952;2023-11-19T07:30:45;33.80;;;30.50;;
57846;SDS011;43675;50.030;21.952;2023-11-19T07:33:12;34.40;;;31.10;;
57846;SDS011;43675;50.030;21.952;2023-11-19T07:35:39;33.10;;;30.00;;
57846;SDS011;43675;50.030;21.952;2023-11-19T07:38:05;33.30;;;30.00;;
57846;SDS011;43675;50.030;21.952;2023-11-19T07:40:32;34.10;;;30.70;;
57846;SDS011;43675;50.030;21.952;2023-11-19T07:42:59;34.40;;;31.10;;
57846;SDS011;43675;50.030;21.952;2023-11-19T07:45:25;33.90;;;30.60;;
57846;SDS011;43675;50.030;21.952;2023-11-19T07:47:52;33.90;;;30.60;;
57846;SDS011;43675;50.030;21.952;2023-11-19T07:50:19;32.10;;;29.10;;
57846;SDS011;43675;50.030;21.952;2023-11-19T07:52:45;32.50;;;29.40;;
57846;SDS011;43675;50.030;21.952;2023-11-19T07:55:12;31.80;;;28.80;;
57846;SDS011;43675;50.030;21.952;2023-11-19T07:57:39;32.30;;;29.30;;
57846;SDS011;43675;50.030;21.952;2023-11-19T08:00:05;32.40;;;29.30;;
57846;SDS011;43675;50.030;21.952;2023-11-19T08:02:33;31.40;;;28.40;;
57846;SDS011;43675;50.030;21.952;2023-11-19T08:04:59;31.60;;;28.60;;
57846;SDS011;43675;50.030;21.952;2023-11-19T08:07:26;32.50;;;29.40;;
57846;SDS011;43675;50.030;21.952;2023-11-19T08:09:53;33.00;;;29.80;;
57846;SDS011;43675;50.030;21.952;2023-11-19T08:12:20;33.50;;;30.10;;
57846;SDS011;43675;50.030;21.952;2023-11-19T08:14:48;30.00;;;27.10;;
57846;SDS011;43675;50.030;21.952;2023-11-19T08:17:15;30.20;;;26.80;;
57846;SDS011;43675;50.030;21.952;2023-11-19T08:19:42;29.80;;;26.70;;
57846;SDS011;43675;50.030;21.952;2023-11-19T08:22:08;28.80;;;25.90;;
57846;SDS011;43675;50.030;21.952;2023-11-19T08:24:35;28.60;;;25.80;;
57846;SDS011;43675;50.030;21.952;2023-11-19T08:27:02;27.80;;;25.10;;
57846;SDS011;43675;50.030;21.952;2023-11-19T08:29:29;28.30;;;25.50;;
57846;SDS011;43675;50.030;21.952;2023-11-19T08:31:56;28.00;;;25.30;;
57846;SDS011;43675;50.030;21.952;2023-11-19T08:34:22;27.40;;;24.70;;
57846;SDS011;43675;50.030;21.952;2023-11-19T08:36:52;26.90;;;24.30;;
57846;SDS011;43675;50.030;21.952;2023-11-19T08:39:19;30.10;;;27.40;;
57846;SDS011;43675;50.030;21.952;2023-11-19T08:41:45;31.00;;;28.30;;
57846;SDS011;43675;50.030;21.952;2023-11-19T08:44:12;30.30;;;27.70;;
57846;SDS011;43675;50.030;21.952;2023-11-19T08:46:39;32.30;;;29.30;;
57846;SDS011;43675;50.030;21.952;2023-11-19T08:49:05;31.20;;;28.50;;
57846;SDS011;43675;50.030;21.952;2023-11-19T08:51:32;31.80;;;29.00;;
57846;SDS011;43675;50.030;21.952;2023-11-19T08:53:59;31.70;;;28.90;;
57846;SDS011;43675;50.030;21.952;2023-11-19T08:56:25;31.50;;;28.70;;
57846;SDS011;43675;50.030;21.952;2023-11-19T08:58:52;31.50;;;28.60;;
57846;SDS011;43675;50.030;21.952;2023-11-19T09:01:19;32.00;;;29.30;;
57846;SDS011;43675;50.030;21.952;2023-11-19T09:03:45;32.50;;;29.60;;
57846;SDS011;43675;50.030;21.952;2023-11-19T09:06:12;32.10;;;29.40;;
57846;SDS011;43675;50.030;21.952;2023-11-19T09:08:39;31.20;;;28.50;;
57846;SDS011;43675;50.030;21.952;2023-11-19T09:11:08;31.50;;;28.80;;
57846;SDS011;43675;50.030;21.952;2023-11-19T09:13:35;31.00;;;28.30;;
57846;SDS011;43675;50.030;21.952;2023-11-19T09:16:02;30.10;;;27.40;;
57846;SDS011;43675;50.030;21.952;2023-11-19T09:18:30;30.50;;;27.90;;
57846;SDS011;43675;50.030;21.952;2023-11-19T09:20:57;29.90;;;27.20;;
57846;SDS011;43675;50.030;21.952;2023-11-19T09:23:24;31.60;;;28.80;;
57846;SDS011;43675;50.030;21.952;2023-11-19T09:25:50;29.70;;;27.20;;
57846;SDS011;43675;50.030;21.952;2023-11-19T09:28:17;27.40;;;25.00;;
57846;SDS011;43675;50.030;21.952;2023-11-19T09:30:44;26.80;;;24.30;;
57846;SDS011;43675;50.030;21.952;2023-11-19T09:33:10;26.80;;;24.40;;
57846;SDS011;43675;50.030;21.952;2023-11-19T09:35:37;26.90;;;24.60;;
57846;SDS011;43675;50.030;21.952;2023-11-19T09:38:04;27.80;;;25.10;;
57846;SDS011;43675;50.030;21.952;2023-11-19T09:40:30;25.50;;;23.20;;
57846;SDS011;43675;50.030;21.952;2023-11-19T09:42:57;26.50;;;24.10;;
57846;SDS011;43675;50.030;21.952;2023-11-19T09:45:23;25.30;;;23.00;;
57846;SDS011;43675;50.030;21.952;2023-11-19T09:47:53;25.90;;;23.50;;
57846;SDS011;43675;50.030;21.952;2023-11-19T09:50:21;27.50;;;24.90;;
57846;SDS011;43675;50.030;21.952;2023-11-19T09:52:49;27.00;;;24.40;;
57846;SDS011;43675;50.030;21.952;2023-11-19T09:55:16;28.50;;;25.70;;
57846;SDS011;43675;50.030;21.952;2023-11-19T09:57:43;27.40;;;24.80;;
57846;SDS011;43675;50.030;21.952;2023-11-19T10:00:10;29.20;;;26.30;;
57846;SDS011;43675;50.030;21.952;2023-11-19T10:02:40;28.30;;;25.60;;
57846;SDS011;43675;50.030;21.952;2023-11-19T10:05:07;27.30;;;24.90;;
57846;SDS011;43675;50.030;21.952;2023-11-19T10:07:34;26.90;;;24.30;;
57846;SDS011;43675;50.030;21.952;2023-11-19T10:10:01;26.10;;;23.80;;
57846;SDS011;43675;50.030;21.952;2023-11-19T10:12:29;27.00;;;24.60;;
57846;SDS011;43675;50.030;21.952;2023-11-19T10:14:57;27.40;;;24.90;;
57846;SDS011;43675;50.030;21.952;2023-11-19T10:17:28;29.70;;;26.90;;
57846;SDS011;43675;50.030;21.952;2023-11-19T10:19:55;29.60;;;26.80;;
57846;SDS011;43675;50.030;21.952;2023-11-19T10:22:22;42.10;;;32.60;;
57846;SDS011;43675;50.030;21.952;2023-11-19T10:24:49;32.70;;;29.10;;
57846;SDS011;43675;50.030;21.952;2023-11-19T10:27:16;43.00;;;33.20;;
57846;SDS011;43675;50.030;21.952;2023-11-19T10:29:46;43.80;;;36.20;;
57846;SDS011;43675;50.030;21.952;2023-11-19T10:32:14;33.80;;;30.20;;
57846;SDS011;43675;50.030;21.952;2023-11-19T10:34:40;31.70;;;28.40;;
57846;SDS011;43675;50.030;21.952;2023-11-19T10:37:07;30.30;;;27.20;;
57846;SDS011;43675;50.030;21.952;2023-11-19T10:39:52;28.70;;;25.80;;
57846;SDS011;43675;50.030;21.952;2023-11-19T10:42:20;28.50;;;25.50;;
57846;SDS011;43675;50.030;21.952;2023-11-19T10:44:47;29.40;;;26.30;;
57846;SDS011;43675;50.030;21.952;2023-11-19T10:47:14;29.00;;;26.00;;
57846;SDS011;43675;50.030;21.952;2023-11-19T10:49:41;29.30;;;26.30;;
57846;SDS011;43675;50.030;21.952;2023-11-19T10:52:10;31.50;;;28.10;;
57846;SDS011;43675;50.030;21.952;2023-11-19T10:54:37;27.90;;;24.90;;
57846;SDS011;43675;50.030;21.952;2023-11-19T10:57:10;27.00;;;24.20;;
57846;SDS011;43675;50.030;21.952;2023-11-19T10:59:43;28.10;;;25.30;;
57846;SDS011;43675;50.030;21.952;2023-11-19T11:02:11;27.40;;;24.70;;
57846;SDS011;43675;50.030;21.952;2023-11-19T11:04:45;27.80;;;24.80;;
57846;SDS011;43675;50.030;21.952;2023-11-19T11:07:13;26.80;;;24.20;;
57846;SDS011;43675;50.030;21.952;2023-11-19T11:09:42;28.10;;;25.30;;
57846;SDS011;43675;50.030;21.952;2023-11-19T11:12:10;27.00;;;24.50;;
57846;SDS011;43675;50.030;21.952;2023-11-19T11:14:37;27.40;;;24.80;;
57846;SDS011;43675;50.030;21.952;2023-11-19T11:17:06;27.30;;;24.80;;
57846;SDS011;43675;50.030;21.952;2023-11-19T11:19:36;28.40;;;25.70;;
57846;SDS011;43675;50.030;21.952;2023-11-19T11:22:02;26.80;;;24.20;;
57846;SDS011;43675;50.030;21.952;2023-11-19T11:24:40;27.50;;;24.90;;
57846;SDS011;43675;50.030;21.952;2023-11-19T11:38:28;28.80;;;25.80;;
57846;SDS011;43675;50.030;21.952;2023-11-19T11:43:46;26.70;;;24.20;;
57846;SDS011;43675;50.030;21.952;2023-11-19T11:49:02;26.30;;;23.70;;
57846;SDS011;43675;50.030;21.952;2023-11-19T11:52:04;24.80;;;22.30;;
57846;SDS011;43675;50.030;21.952;2023-11-19T11:59:49;24.70;;;22.10;;
57846;SDS011;43675;50.030;21.952;2023-11-19T12:02:17;25.30;;;22.70;;
57846;SDS011;43675;50.030;21.952;2023-11-19T12:04:46;26.50;;;23.90;;
57846;SDS011;43675;50.030;21.952;2023-11-19T12:07:18;24.50;;;22.10;;
57846;SDS011;43675;50.030;21.952;2023-11-19T12:09:48;28.10;;;25.30;;
57846;SDS011;43675;50.030;21.952;2023-11-19T12:12:18;29.90;;;26.80;;
57846;SDS011;43675;50.030;21.952;2023-11-19T12:20:00;27.80;;;25.10;;
57846;SDS011;43675;50.030;21.952;2023-11-19T12:22:37;27.90;;;25.20;;
57846;SDS011;43675;50.030;21.952;2023-11-19T12:25:08;29.80;;;26.60;;
57846;SDS011;43675;50.030;21.952;2023-11-19T12:27:36;28.50;;;25.90;;
57846;SDS011;43675;50.030;21.952;2023-11-19T12:30:07;26.40;;;24.00;;
57846;SDS011;43675;50.030;21.952;2023-11-19T12:32:38;26.90;;;24.30;;
57846;SDS011;43675;50.030;21.952;2023-11-19T12:35:08;26.90;;;24.40;;
57846;SDS011;43675;50.030;21.952;2023-11-19T12:37:54;26.00;;;23.60;;
57846;SDS011;43675;50.030;21.952;2023-11-19T12:42:49;26.80;;;24.30;;
57846;SDS011;43675;50.030;21.952;2023-11-19T12:45:19;26.40;;;23.90;;
57846;SDS011;43675;50.030;21.952;2023-11-19T12:47:47;27.70;;;25.00;;
57846;SDS011;43675;50.030;21.952;2023-11-19T12:50:14;29.10;;;26.10;;
57846;SDS011;43675;50.030;21.952;2023-11-19T12:52:47;29.10;;;26.00;;
57846;SDS011;43675;50.030;21.952;2023-11-19T12:55:25;33.90;;;29.60;;
57846;SDS011;43675;50.030;21.952;2023-11-19T12:57:52;34.10;;;29.20;;
57846;SDS011;43675;50.030;21.952;2023-11-19T13:00:20;29.30;;;26.30;;
57846;SDS011;43675;50.030;21.952;2023-11-19T13:02:51;31.80;;;27.20;;
57846;SDS011;43675;50.030;21.952;2023-11-19T13:08:04;30.00;;;26.80;;
57846;SDS011;43675;50.030;21.952;2023-11-19T13:10:32;30.10;;;26.70;;
57846;SDS011;43675;50.030;21.952;2023-11-19T13:13:02;33.50;;;30.40;;
57846;SDS011;43675;50.030;21.952;2023-11-19T13:15:35;36.90;;;33.30;;
57846;SDS011;43675;50.030;21.952;2023-11-19T13:18:02;44.50;;;37.30;;
57846;SDS011;43675;50.030;21.952;2023-11-19T13:20:29;42.40;;;34.80;;
57846;SDS011;43675;50.030;21.952;2023-11-19T13:25:30;33.70;;;30.40;;
57846;SDS011;43675;50.030;21.952;2023-11-19T13:27:57;32.10;;;28.90;;
57846;SDS011;43675;50.030;21.952;2023-11-19T13:30:24;38.40;;;31.80;;
57846;SDS011;43675;50.030;21.952;2023-11-19T13:32:52;40.30;;;32.90;;
57846;SDS011;43675;50.030;21.952;2023-11-19T13:35:19;34.80;;;30.20;;
57846;SDS011;43675;50.030;21.952;2023-11-19T13:37:46;32.20;;;28.80;;
57846;SDS011;43675;50.030;21.952;2023-11-19T13:40:12;32.70;;;29.20;;
57846;SDS011;43675;50.030;21.952;2023-11-19T13:42:40;54.70;;;41.50;;
57846;SDS011;43675;50.030;21.952;2023-11-19T13:45:10;45.00;;;36.20;;
57846;SDS011;43675;50.030;21.952;2023-11-19T13:47:42;37.10;;;32.90;;
57846;SDS011;43675;50.030;21.952;2023-11-19T13:50:10;33.00;;;29.60;;
57846;SDS011;43675;50.030;21.952;2023-11-19T13:52:38;33.80;;;29.20;;
57846;SDS011;43675;50.030;21.952;2023-11-19T13:55:06;29.80;;;26.80;;
57846;SDS011;43675;50.030;21.952;2023-11-19T13:57:35;30.30;;;27.10;;
57846;SDS011;43675;50.030;21.952;2023-11-19T14:00:02;30.80;;;27.50;;
57846;SDS011;43675;50.030;21.952;2023-11-19T14:02:30;32.80;;;29.30;;
57846;SDS011;43675;50.030;21.952;2023-11-19T14:04:56;33.00;;;29.50;;
57846;SDS011;43675;50.030;21.952;2023-11-19T14:07:23;32.20;;;28.80;;
57846;SDS011;43675;50.030;21.952;2023-11-19T14:09:50;30.10;;;27.10;;
57846;SDS011;43675;50.030;21.952;2023-11-19T14:12:16;29.60;;;26.80;;
57846;SDS011;43675;50.030;21.952;2023-11-19T14:14:43;29.90;;;27.00;;
57846;SDS011;43675;50.030;21.952;2023-11-19T14:17:10;29.40;;;26.40;;
57846;SDS011;43675;50.030;21.952;2023-11-19T14:19:37;31.30;;;28.20;;
57846;SDS011;43675;50.030;21.952;2023-11-19T14:22:03;30.50;;;27.40;;
57846;SDS011;43675;50.030;21.952;2023-11-19T14:24:30;32.00;;;28.80;;
57846;SDS011;43675;50.030;21.952;2023-11-19T14:26:57;30.10;;;27.10;;
57846;SDS011;43675;50.030;21.952;2023-11-19T14:29:24;28.80;;;26.00;;
57846;SDS011;43675;50.030;21.952;2023-11-19T14:31:51;31.40;;;28.10;;
57846;SDS011;43675;50.030;21.952;2023-11-19T14:34:18;30.00;;;27.00;;
57846;SDS011;43675;50.030;21.952;2023-11-19T14:36:45;29.20;;;26.30;;
57846;SDS011;43675;50.030;21.952;2023-11-19T14:39:12;31.40;;;28.20;;
57846;SDS011;43675;50.030;21.952;2023-11-19T14:41:39;32.50;;;29.00;;
57846;SDS011;43675;50.030;21.952;2023-11-19T14:44:05;31.60;;;28.40;;
57846;SDS011;43675;50.030;21.952;2023-11-19T14:46:32;33.10;;;29.70;;
57846;SDS011;43675;50.030;21.952;2023-11-19T14:48:59;31.90;;;28.40;;